Time;durP1;ratioP1;P1;durP2;ratioP2;P2;SDS_P1;SDS_P2;PMS_P1;PMS_P2;Temp;Humidity;BMP_temperature;BMP_pressure;BME280_temperature;BME280_humidity;BME280_pressure;Samples;Min_cycle;Max_cycle;Signal;HPM_P1;HPM_P2
2021/04/21 00:00:18;;;;;;;20.25;14.43;;;8.20;72.50;;;;;;5088925;28;20203;-81
2021/04/21 00:02:50;;;;;;;18.00;13.68;;;8.10;72.30;;;;;;5089693;28;20711;-81
2021/04/21 00:05:18;;;;;;;19.80;14.07;;;8.20;72.00;;;;;;5101980;28;20275;-81
2021/04/21 00:07:46;;;;;;;15.48;12.75;;;8.20;71.80;;;;;;5092259;28;20218;-81
2021/04/21 00:10:13;;;;;;;16.08;13.93;;;8.00;71.50;;;;;;5109097;28;20209;-81
2021/04/21 00:12:40;;;;;;;16.08;12.27;;;8.00;71.50;;;;;;5102140;28;20660;-81
2021/04/21 00:15:09;;;;;;;14.60;12.75;;;8.10;71.70;;;;;;5109879;28;20194;-81
2021/04/21 00:17:39;;;;;;;14.48;12.05;;;8.00;71.20;;;;;;5108057;28;20258;-81
2021/04/21 00:20:07;;;;;;;18.42;12.73;;;8.00;71.10;;;;;;5092474;28;20210;-81
2021/04/21 00:22:35;;;;;;;14.57;12.52;;;8.00;70.40;;;;;;5101876;28;20201;-81
2021/04/21 00:25:03;;;;;;;14.55;12.32;;;7.80;70.50;;;;;;5096119;28;20310;-81
2021/04/21 00:27:31;;;;;;;13.95;11.45;;;7.70;71.30;;;;;;5107901;28;20225;-81
2021/04/21 00:30:03;;;;;;;18.20;13.52;;;7.80;71.40;;;;;;5101956;28;20202;-81
2021/04/21 00:32:31;;;;;;;16.45;12.07;;;7.70;73.40;;;;;;5107651;28;20277;-81
2021/04/21 00:34:58;;;;;;;13.82;11.05;;;7.70;72.60;;;;;;5093324;28;20240;-81
2021/04/21 00:37:28;;;;;;;16.48;12.75;;;7.60;72.60;;;;;;5112774;28;20206;-81
2021/04/21 00:39:57;;;;;;;16.83;12.63;;;7.70;72.50;;;;;;5090974;28;20599;-81
2021/04/21 00:42:32;;;;;;;13.93;11.10;;;7.60;71.70;;;;;;5092247;28;20206;-81
2021/04/21 00:45:02;;;;;;;17.58;13.27;;;7.60;71.80;;;;;;5096081;28;20274;-80
2021/04/21 00:47:41;;;;;;;18.05;12.35;;;7.60;71.70;;;;;;5098197;28;20683;-80
2021/04/21 00:50:13;;;;;;;17.83;13.75;;;7.60;74.10;;;;;;5095462;28;20221;-81
2021/04/21 00:52:47;;;;;;;17.88;13.02;;;7.70;72.70;;;;;;5091749;28;20226;-80
2021/04/21 00:55:22;;;;;;;14.75;12.63;;;7.50;74.80;;;;;;5074243;28;20199;-81
2021/04/21 00:57:57;;;;;;;17.20;13.10;;;7.50;75.20;;;;;;5080783;28;20218;-81
2021/04/21 01:00:29;;;;;;;16.85;13.07;;;7.50;75.40;;;;;;5103974;28;20259;-80
2021/04/21 01:03:06;;;;;;;18.85;13.70;;;7.60;74.50;;;;;;5105001;28;20295;-81
2021/04/21 01:05:37;;;;;;;17.85;13.98;;;7.60;73.80;;;;;;5110709;28;20561;-80
2021/04/21 01:08:07;;;;;;;14.50;11.68;;;7.40;73.50;;;;;;5107535;28;20237;-80
2021/04/21 01:10:43;;;;;;;14.45;11.68;;;7.40;73.30;;;;;;5087932;28;21318;-80
2021/04/21 01:13:11;;;;;;;16.75;12.05;;;7.20;73.10;;;;;;5088834;28;20554;-80
2021/04/21 01:15:42;;;;;;;14.85;11.98;;;7.10;74.00;;;;;;5088063;28;20381;-80
2021/04/21 01:18:12;;;;;;;15.57;13.55;;;7.10;74.40;;;;;;5106512;28;20202;-80
2021/04/21 01:20:58;;;;;;;16.83;12.98;;;7.10;74.20;;;;;;5095432;28;20203;-80
2021/04/21 01:23:52;;;;;;;15.98;12.90;;;7.10;74.10;;;;;;5110645;28;20204;-80
2021/04/21 01:26:43;;;;;;;14.88;11.50;;;7.10;74.10;;;;;;5111425;28;20225;-81
2021/04/21 01:29:15;;;;;;;16.90;12.18;;;7.00;75.00;;;;;;5101798;28;20285;-81
2021/04/21 01:31:48;;;;;;;16.73;11.60;;;6.90;74.30;;;;;;5109779;28;20250;-81
2021/04/21 01:34:19;;;;;;;14.98;12.93;;;6.90;74.30;;;;;;5093315;28;20555;-80
2021/04/21 01:36:48;;;;;;;18.75;12.55;;;7.10;75.30;;;;;;5092187;28;20203;-81
2021/04/21 01:39:16;;;;;;;18.30;12.93;;;7.10;74.70;;;;;;5090523;28;20277;-80
2021/04/21 01:41:48;;;;;;;15.10;13.23;;;7.20;74.60;;;;;;5098228;28;20190;-80
2021/04/21 01:44:20;;;;;;;15.07;13.00;;;7.10;74.50;;;;;;5094129;28;20210;-81
2021/04/21 01:46:56;;;;;;;16.67;12.77;;;7.10;74.80;;;;;;5111829;28;20697;-80
2021/04/21 01:49:52;;;;;;;19.40;13.10;;;7.10;74.80;;;;;;5102236;28;20289;-80
2021/04/21 01:52:46;;;;;;;15.93;13.10;;;7.10;74.70;;;;;;5091842;28;20293;-80
2021/04/21 01:55:35;;;;;;;15.57;12.55;;;7.10;74.70;;;;;;5110364;28;20202;-80
2021/04/21 01:58:18;;;;;;;14.05;12.60;;;7.10;74.70;;;;;;5071791;28;20203;-80
2021/04/21 02:00:50;;;;;;;18.13;13.82;;;7.20;74.70;;;;;;5106542;28;20672;-80
2021/04/21 02:03:21;;;;;;;17.27;14.23;;;7.00;74.60;;;;;;5103627;28;20826;-80
2021/04/21 02:06:12;;;;;;;16.27;12.93;;;7.00;74.70;;;;;;5109442;28;20205;-81
2021/04/21 02:08:55;;;;;;;16.52;13.05;;;7.10;75.60;;;;;;5089490;28;20206;-81
2021/04/21 02:11:25;;;;;;;18.58;13.57;;;7.10;74.40;;;;;;5071382;28;20428;-81
2021/04/21 02:14:13;;;;;;;16.85;13.18;;;7.00;74.60;;;;;;5087716;28;20621;-81
2021/04/21 02:17:01;;;;;;;16.52;13.73;;;7.00;75.20;;;;;;5091361;28;20252;-81
2021/04/21 02:19:37;;;;;;;17.80;14.25;;;7.00;74.70;;;;;;5102295;28;20218;-80
2021/04/21 02:22:19;;;;;;;20.70;15.57;;;7.00;75.80;;;;;;5091224;28;20259;-81
2021/04/21 02:24:54;;;;;;;27.88;14.82;;;7.10;76.30;;;;;;5088193;28;20231;-80
2021/04/21 02:27:26;;;;;;;21.05;15.55;;;7.10;75.80;;;;;;5101847;28;20559;-80
2021/04/21 02:29:58;;;;;;;19.40;15.10;;;7.00;75.40;;;;;;5098431;28;20201;-80
2021/04/21 02:32:37;;;;;;;22.35;15.88;;;7.00;75.50;;;;;;5092162;28;20229;-80
2021/04/21 02:35:13;;;;;;;20.02;15.60;;;7.10;75.80;;;;;;5110928;28;20268;-80
2021/04/21 02:37:52;;;;;;;23.88;16.17;;;7.10;75.70;;;;;;5107610;28;20194;-80
2021/04/21 02:40:27;;;;;;;23.75;16.25;;;7.10;76.20;;;;;;5089982;28;20315;-80
2021/04/21 02:43:01;;;;;;;20.77;15.63;;;7.20;76.70;;;;;;5092192;28;20707;-80
2021/04/21 02:45:33;;;;;;;19.80;14.32;;;7.20;76.10;;;;;;5090448;28;20703;-80
2021/04/21 02:48:05;;;;;;;22.63;14.52;;;7.20;76.00;;;;;;5093844;28;20209;-80
2021/04/21 02:50:39;;;;;;;17.45;13.43;;;7.10;75.40;;;;;;5090481;28;20199;-80
2021/04/21 02:53:16;;;;;;;19.17;14.60;;;6.90;75.00;;;;;;5107326;28;20224;-81
2021/04/21 02:55:52;;;;;;;17.67;15.35;;;6.80;75.90;;;;;;5110762;28;20553;-80
2021/04/21 02:58:31;;;;;;;20.23;15.57;;;6.70;76.30;;;;;;5105098;28;20201;-81
2021/04/21 03:01:05;;;;;;;22.50;16.30;;;6.70;76.60;;;;;;5109165;28;20202;-80
2021/04/21 03:03:38;;;;;;;21.40;15.90;;;6.80;77.90;;;;;;5091535;28;20194;-80
2021/04/21 03:06:09;;;;;;;23.85;16.30;;;6.80;79.20;;;;;;5108767;28;20309;-81
2021/04/21 03:08:40;;;;;;;23.90;16.75;;;6.70;78.60;;;;;;5098306;28;20202;-80
2021/04/21 03:11:13;;;;;;;23.58;17.00;;;6.70;77.70;;;;;;5090389;28;20203;-80
2021/04/21 03:13:47;;;;;;;19.92;15.48;;;6.70;77.40;;;;;;5099762;28;20235;-80
2021/04/21 03:16:16;;;;;;;24.80;17.05;;;6.70;77.50;;;;;;5092111;28;20194;-80
2021/04/21 03:18:47;;;;;;;26.45;18.05;;;6.60;78.00;;;;;;5091793;28;20232;-80
2021/04/21 03:21:17;;;;;;;21.30;16.33;;;6.70;78.20;;;;;;5090568;28;20198;-80
2021/04/21 03:23:46;;;;;;;26.85;17.75;;;6.70;78.50;;;;;;5101392;28;20189;-80
2021/04/21 03:26:13;;;;;;;22.95;17.50;;;6.70;78.90;;;;;;5110905;28;20226;-80
2021/04/21 03:28:44;;;;;;;23.92;17.45;;;6.70;80.10;;;;;;5093471;28;20211;-81
2021/04/21 03:31:13;;;;;;;25.65;18.58;;;6.60;81.00;;;;;;5091655;28;20281;-80
2021/04/21 03:33:46;;;;;;;23.20;17.02;;;6.70;80.00;;;;;;5099348;28;20277;-80
2021/04/21 03:36:17;;;;;;;25.25;19.90;;;6.60;78.40;;;;;;5091817;28;20237;-81
2021/04/21 03:38:44;;;;;;;23.88;17.02;;;6.50;78.50;;;;;;5096882;28;20206;-81
2021/04/21 03:41:11;;;;;;;20.55;15.98;;;6.60;79.20;;;;;;5090415;28;20206;-81
2021/04/21 03:43:38;;;;;;;24.40;17.33;;;6.50;78.40;;;;;;5092723;28;20612;-80
2021/04/21 03:46:05;;;;;;;23.00;17.80;;;6.50;78.30;;;;;;5090107;28;20280;-80
2021/04/21 03:48:32;;;;;;;26.30;16.95;;;6.50;78.20;;;;;;5097328;28;20731;-80
2021/04/21 03:51:00;;;;;;;25.00;17.35;;;6.60;78.10;;;;;;5092285;28;20252;-80
2021/04/21 03:53:31;;;;;;;21.73;17.38;;;6.50;78.30;;;;;;5109620;28;21639;-80
2021/04/21 03:55:57;;;;;;;24.30;17.45;;;6.60;79.60;;;;;;5105368;28;20243;-80
2021/04/21 03:58:27;;;;;;;31.52;18.52;;;6.60;80.60;;;;;;5097577;28;20210;-80
2021/04/21 04:00:58;;;;;;;35.78;19.38;;;6.70;80.80;;;;;;5087575;28;20200;-80
2021/04/21 04:03:27;;;;;;;27.10;18.75;;;6.70;80.30;;;;;;5085578;28;20674;-80
2021/04/21 04:06:02;;;;;;;23.42;16.40;;;6.70;79.70;;;;;;5114348;28;20217;-80
2021/04/21 04:08:34;;;;;;;24.52;19.30;;;6.80;79.80;;;;;;5102920;28;20198;-80
2021/04/21 04:11:02;;;;;;;22.20;17.40;;;6.70;78.80;;;;;;5093595;28;20234;-80
2021/04/21 04:13:32;;;;;;;19.90;15.77;;;6.60;78.60;;;;;;5099168;28;20571;-80
2021/04/21 04:15:59;;;;;;;21.95;16.50;;;6.40;78.80;;;;;;5093940;28;20210;-80
2021/04/21 04:18:27;;;;;;;21.38;16.70;;;6.40;78.90;;;;;;5103185;28;20205;-80
2021/04/21 04:20:55;;;;;;;25.45;18.00;;;6.40;79.60;;;;;;5113149;28;20198;-80
2021/04/21 04:23:26;;;;;;;22.90;17.02;;;6.50;80.20;;;;;;5086050;28;20272;-80
2021/04/21 04:25:54;;;;;;;22.08;16.02;;;6.50;79.60;;;;;;5094014;28;20553;-81
2021/04/21 04:28:21;;;;;;;24.65;16.65;;;6.50;79.30;;;;;;5095088;28;20913;-80
2021/04/21 04:30:48;;;;;;;29.42;18.30;;;6.60;79.40;;;;;;5092839;28;20268;-80
2021/04/21 04:33:16;;;;;;;25.10;17.27;;;6.50;79.70;;;;;;5098623;28;20202;-80
2021/04/21 04:35:43;;;;;;;24.08;17.15;;;6.60;79.90;;;;;;5092939;28;20207;-80
2021/04/21 04:38:12;;;;;;;22.48;17.85;;;6.60;80.10;;;;;;5098225;28;20739;-80
2021/04/21 04:40:39;;;;;;;23.20;16.05;;;6.60;80.50;;;;;;5093055;28;20287;-81
2021/04/21 04:43:05;;;;;;;27.50;17.80;;;6.40;79.40;;;;;;5106551;28;20201;-81
2021/04/21 04:45:33;;;;;;;22.98;15.65;;;6.50;79.70;;;;;;5095045;28;20262;-80
2021/04/21 04:48:03;;;;;;;24.52;18.35;;;6.40;79.60;;;;;;5101428;28;20198;-80
2021/04/21 04:50:30;;;;;;;25.02;17.33;;;6.40;79.80;;;;;;5096061;28;20567;-80
2021/04/21 04:52:59;;;;;;;21.73;15.45;;;6.40;79.80;;;;;;5112049;28;20679;-80
2021/04/21 04:55:26;;;;;;;23.30;17.70;;;6.50;80.50;;;;;;5100858;28;20225;-80
2021/04/21 04:57:56;;;;;;;29.30;17.60;;;6.50;81.20;;;;;;5113597;28;20248;-80
2021/04/21 05:00:24;;;;;;;21.30;17.58;;;6.40;82.20;;;;;;5093538;28;20281;-80
2021/04/21 05:02:54;;;;;;;26.15;18.15;;;6.40;82.70;;;;;;5098868;28;20197;-80
2021/04/21 05:05:21;;;;;;;39.20;17.92;;;6.50;83.00;;;;;;5094188;28;20313;-80
2021/04/21 05:07:53;;;;;;;27.98;17.10;;;6.70;83.10;;;;;;5095724;28;20679;-80
2021/04/21 05:10:26;;;;;;;27.13;17.38;;;6.70;82.30;;;;;;5099075;28;20206;-80
2021/04/21 05:12:56;;;;;;;25.90;18.50;;;6.80;81.30;;;;;;5102324;28;20226;-80
2021/04/21 05:15:55;;;;;;;22.90;17.23;;;7.00;80.80;;;;;;5112650;28;20205;-81
2021/04/21 05:19:19;;;;;;;27.98;17.05;;;7.10;80.10;;;;;;5082588;28;20202;-81
2021/04/21 05:22:23;;;;;;;27.85;17.63;;;7.10;79.80;;;;;;5067993;28;20241;-81
2021/04/21 05:25:32;;;;;;;26.58;18.02;;;7.10;80.10;;;;;;5091066;28;20731;-81
2021/04/21 05:28:50;;;;;;;24.17;17.20;;;7.10;80.60;;;;;;5106241;28;20229;-81
2021/04/21 05:31:37;;;;;;;22.50;16.52;;;7.30;80.00;;;;;;5100631;28;20344;-82
2021/04/21 05:34:39;;;;;;;24.33;16.98;;;7.50;80.00;;;;;;5102813;28;20202;-83
2021/04/21 05:37:39;;;;;;;21.25;16.25;;;7.80;79.80;;;;;;5093843;28;20792;-82
2021/04/21 05:40:43;;;;;;;25.73;17.52;;;8.00;79.00;;;;;;5072686;28;20219;-82
2021/04/21 05:43:57;;;;;;;21.52;17.48;;;8.00;78.30;;;;;;5097155;28;20208;-82
2021/04/21 05:47:14;;;;;;;21.98;16.42;;;8.00;77.90;;;;;;5111093;28;20718;-82
2021/04/21 05:50:28;;;;;;;23.85;16.95;;;8.00;78.00;;;;;;5071451;28;20261;-82
2021/04/21 05:53:23;;;;;;;22.52;16.98;;;8.20;78.70;;;;;;5080639;28;20202;-82
2021/04/21 05:56:23;;;;;;;21.88;17.30;;;8.40;78.00;;;;;;5089453;28;20214;-82
2021/04/21 05:59:26;;;;;;;23.35;17.67;;;8.50;77.50;;;;;;5097700;28;20274;-81
2021/04/21 06:01:55;;;;;;;28.15;18.52;;;8.60;76.90;;;;;;5091815;28;20213;-82
2021/04/21 06:04:23;;;;;;;21.52;16.35;;;8.70;77.20;;;;;;5090812;28;20605;-82
2021/04/21 06:06:49;;;;;;;26.73;17.55;;;8.80;77.70;;;;;;5090590;28;20226;-82
2021/04/21 06:09:15;;;;;;;24.00;17.70;;;8.80;77.10;;;;;;5090814;28;20195;-82
2021/04/21 06:11:42;;;;;;;27.60;18.63;;;8.80;77.10;;;;;;5105911;28;20266;-82
2021/04/21 06:14:09;;;;;;;25.55;19.42;;;8.90;77.50;;;;;;5108628;28;20198;-82
2021/04/21 06:16:37;;;;;;;23.83;17.73;;;9.00;77.60;;;;;;5111070;28;20962;-82
2021/04/21 06:19:06;;;;;;;22.50;17.42;;;9.10;77.50;;;;;;5105524;28;20339;-82
2021/04/21 06:21:35;;;;;;;23.95;17.83;;;9.10;77.20;;;;;;5111507;28;20626;-83
2021/04/21 06:24:02;;;;;;;23.83;18.08;;;9.20;77.60;;;;;;5107723;28;20201;-83
2021/04/21 06:26:31;;;;;;;28.30;21.33;;;9.30;77.00;;;;;;5110144;28;20286;-82
2021/04/21 06:28:59;;;;;;;25.63;19.08;;;9.60;76.60;;;;;;5104287;28;20273;-82
2021/04/21 06:31:39;;;;;;;26.63;18.77;;;9.60;75.80;;;;;;5090817;28;20287;-82
2021/04/21 06:34:08;;;;;;;26.83;19.40;;;9.70;75.30;;;;;;5107572;28;20205;-83
2021/04/21 06:36:38;;;;;;;28.52;20.75;;;9.80;75.30;;;;;;5111369;28;20241;-83
2021/04/21 06:39:06;;;;;;;25.88;18.73;;;9.90;74.80;;;;;;5108881;28;20209;-82
2021/04/21 06:41:32;;;;;;;25.23;17.80;;;9.90;75.10;;;;;;5111619;28;20347;-82
2021/04/21 06:43:59;;;;;;;22.65;17.75;;;10.00;73.40;;;;;;5109915;28;20266;-83
2021/04/21 06:46:26;;;;;;;22.95;17.52;;;10.20;73.20;;;;;;5111216;28;20852;-82
2021/04/21 06:48:54;;;;;;;25.65;19.35;;;10.30;73.20;;;;;;5109893;28;20198;-82
2021/04/21 06:51:22;;;;;;;22.13;17.95;;;10.40;72.80;;;;;;5110998;28;20569;-83
2021/04/21 06:53:49;;;;;;;24.40;18.83;;;10.40;71.50;;;;;;5107934;28;20216;-83
2021/04/21 06:56:16;;;;;;;25.00;18.30;;;10.40;72.70;;;;;;5111568;28;20667;-82
2021/04/21 06:58:43;;;;;;;26.40;19.83;;;10.70;72.80;;;;;;5096051;28;20194;-83
2021/04/21 07:01:10;;;;;;;23.23;18.70;;;10.90;72.50;;;;;;5110705;28;20225;-82
2021/04/21 07:03:37;;;;;;;23.10;17.83;;;10.90;71.40;;;;;;5094571;28;20229;-83
2021/04/21 07:06:05;;;;;;;25.48;19.05;;;10.90;71.40;;;;;;5090982;28;20284;-82
2021/04/21 07:08:33;;;;;;;25.38;19.58;;;11.10;71.80;;;;;;5079039;28;20200;-82
2021/04/21 07:11:01;;;;;;;21.38;17.77;;;11.30;71.80;;;;;;5070218;28;20249;-82
2021/04/21 07:13:30;;;;;;;29.15;19.13;;;11.40;70.40;;;;;;5093300;28;20198;-83
2021/04/21 07:15:59;;;;;;;26.25;17.75;;;11.40;69.80;;;;;;5111046;28;20602;-82
2021/04/21 07:18:29;;;;;;;26.42;19.15;;;11.40;70.00;;;;;;5106723;28;20205;-83
2021/04/21 07:20:56;;;;;;;29.08;18.17;;;11.20;69.40;;;;;;5110824;28;20209;-82
2021/04/21 07:23:26;;;;;;;26.60;19.43;;;11.50;70.60;;;;;;5103492;28;20256;-83
2021/04/21 07:25:53;;;;;;;26.70;19.60;;;11.70;69.50;;;;;;5089845;28;20633;-83
2021/04/21 07:28:22;;;;;;;25.37;19.47;;;12.00;69.50;;;;;;5092832;28;20627;-83
2021/04/21 07:30:50;;;;;;;25.27;18.30;;;12.20;69.30;;;;;;5089602;28;20685;-82
2021/04/21 07:33:38;;;;;;;29.23;19.73;;;12.40;67.90;;;;;;5100050;28;20623;-83
2021/04/21 07:36:09;;;;;;;24.20;18.43;;;12.50;67.70;;;;;;5109110;28;20994;-83
2021/04/21 07:38:45;;;;;;;22.37;19.07;;;12.70;66.60;;;;;;5098717;28;21283;-82
2021/04/21 07:41:13;;;;;;;24.40;18.17;;;12.90;65.90;;;;;;5097318;28;20657;-83
2021/04/21 07:43:42;;;;;;;21.30;16.77;;;13.00;65.80;;;;;;5103288;28;20690;-83
2021/04/21 07:46:14;;;;;;;26.80;18.67;;;13.00;66.40;;;;;;5093030;28;20656;-83
2021/04/21 07:48:49;;;;;;;30.43;19.80;;;13.20;65.30;;;;;;5098721;28;20617;-83
2021/04/21 07:51:37;;;;;;;23.33;17.73;;;13.30;64.50;;;;;;5107085;28;20819;-83
2021/04/21 07:54:07;;;;;;;23.90;17.60;;;13.30;62.60;;;;;;5100102;28;20628;-83
2021/04/21 07:56:35;;;;;;;33.20;20.13;;;13.50;62.40;;;;;;5091014;28;20638;-83
2021/04/21 07:59:16;;;;;;;18.07;15.07;;;13.50;60.90;;;;;;5091414;28;21002;-83
2021/04/21 08:01:42;;;;;;;23.00;17.07;;;13.70;61.30;;;;;;5110121;28;20647;-83
2021/04/21 08:04:20;;;;;;;21.43;17.47;;;13.80;60.90;;;;;;5094362;28;20629;-83
2021/04/21 08:06:49;;;;;;;23.00;17.77;;;14.00;60.70;;;;;;5090399;28;20648;-83
2021/04/21 08:09:17;;;;;;;22.40;18.40;;;13.80;59.80;;;;;;5091152;28;20674;-83
2021/04/21 08:11:44;;;;;;;21.90;17.60;;;13.80;59.70;;;;;;5096580;28;20620;-83
2021/04/21 08:14:14;;;;;;;23.50;18.90;;;14.00;60.20;;;;;;5092617;28;21006;-83
2021/04/21 08:16:40;;;;;;;21.27;17.00;;;14.10;59.70;;;;;;5095139;28;20612;-83
2021/04/21 08:19:15;;;;;;;19.77;16.60;;;14.10;59.00;;;;;;5096741;28;20649;-83
2021/04/21 08:21:43;;;;;;;25.20;18.80;;;14.40;60.10;;;;;;5094556;28;20635;-83
2021/04/21 08:24:13;;;;;;;20.73;17.60;;;14.60;60.70;;;;;;5108033;28;20628;-82
2021/04/21 08:26:42;;;;;;;20.80;17.10;;;14.70;59.20;;;;;;5093434;28;20649;-83
2021/04/21 08:29:11;;;;;;;19.40;16.07;;;14.90;59.00;;;;;;5090064;28;20638;-83
2021/04/21 08:31:39;;;;;;;17.13;14.97;;;14.90;58.80;;;;;;5088773;28;20628;-83
2021/04/21 08:34:05;;;;;;;17.57;15.20;;;15.10;57.90;;;;;;5104331;28;21306;-82
2021/04/21 08:36:32;;;;;;;17.03;14.47;;;15.00;56.90;;;;;;5111462;28;21091;-83
2021/04/21 08:38:58;;;;;;;18.03;13.97;;;14.80;57.80;;;;;;5108710;28;20666;-83
2021/04/21 08:41:27;;;;;;;20.20;15.07;;;15.00;57.60;;;;;;5113500;28;21164;-83
2021/04/21 08:43:55;;;;;;;20.00;15.70;;;15.10;57.30;;;;;;5097788;28;20695;-83
2021/04/21 08:46:22;;;;;;;18.33;15.50;;;15.40;57.40;;;;;;5097956;28;20704;-83
2021/04/21 08:48:49;;;;;;;17.97;15.87;;;15.60;57.70;;;;;;5105592;28;20631;-83
2021/04/21 08:51:21;;;;;;;16.53;14.70;;;15.60;57.80;;;;;;5108422;28;20627;-83
2021/04/21 08:53:51;;;;;;;17.30;14.70;;;15.70;57.70;;;;;;5099779;28;20627;-84
2021/04/21 08:56:19;;;;;;;19.63;15.40;;;15.80;55.80;;;;;;5093548;28;20619;-83
2021/04/21 08:58:46;;;;;;;19.53;14.53;;;16.00;55.50;;;;;;5092748;28;20608;-84
2021/04/21 09:01:16;;;;;;;15.50;13.37;;;16.10;54.50;;;;;;5072644;28;20673;-83
2021/04/21 09:03:44;;;;;;;18.10;13.17;;;16.20;54.70;;;;;;5094109;28;20673;-84
2021/04/21 09:06:15;;;;;;;16.07;14.33;;;16.40;54.30;;;;;;5096587;28;20647;-84
2021/04/21 09:08:42;;;;;;;19.13;14.90;;;16.50;53.00;;;;;;5111702;28;21200;-84
2021/04/21 09:11:08;;;;;;;14.53;12.23;;;16.50;53.40;;;;;;5092232;28;20602;-84
2021/04/21 09:13:35;;;;;;;13.50;12.07;;;16.60;53.60;;;;;;5099558;28;20966;-83
2021/04/21 09:16:02;;;;;;;15.67;13.20;;;16.70;53.00;;;;;;5092757;28;20651;-83
2021/04/21 09:18:30;;;;;;;18.70;13.17;;;16.60;51.90;;;;;;5112775;28;20671;-82
2021/04/21 09:20:58;;;;;;;18.10;15.67;;;16.80;53.30;;;;;;5096091;28;20681;-83
2021/04/21 09:23:24;;;;;;;15.87;14.07;;;17.00;53.10;;;;;;5106524;28;20620;-83
2021/04/21 09:25:53;;;;;;;16.27;14.00;;;17.10;53.00;;;;;;5112202;28;20700;-82
2021/04/21 09:28:20;;;;;;;17.03;14.57;;;17.20;52.10;;;;;;5098385;28;20684;-83
2021/04/21 09:30:52;;;;;;;15.63;13.50;;;17.00;51.70;;;;;;5100921;28;20626;-82
2021/04/21 09:33:20;;;;;;;17.97;14.40;;;17.00;52.90;;;;;;5100989;28;20624;-83
2021/04/21 09:35:48;;;;;;;15.70;12.90;;;17.20;51.30;;;;;;5111235;28;20610;-83
2021/04/21 09:38:16;;;;;;;14.17;11.87;;;17.30;50.90;;;;;;5101320;28;20619;-83
2021/04/21 09:40:46;;;;;;;14.37;12.20;;;17.50;50.40;;;;;;5100561;28;20733;-83
2021/04/21 09:43:18;;;;;;;12.77;10.70;;;17.50;50.20;;;;;;5101512;28;20627;-83
2021/04/21 09:45:46;;;;;;;13.93;12.53;;;17.80;50.30;;;;;;5111921;28;20655;-83
2021/04/21 09:48:15;;;;;;;15.67;12.77;;;17.90;49.60;;;;;;5084029;28;20616;-82
2021/04/21 09:50:43;;;;;;;15.63;13.43;;;18.00;49.80;;;;;;5100952;28;20631;-83
2021/04/21 09:53:28;;;;;;;15.80;14.07;;;18.10;49.80;;;;;;5093507;28;20593;-83
2021/04/21 09:56:16;;;;;;;16.70;14.20;;;18.00;49.10;;;;;;5112112;28;21171;-83
2021/04/21 09:58:45;;;;;;;16.80;13.47;;;18.10;49.30;;;;;;5101428;28;20616;-83
2021/04/21 10:01:26;;;;;;;15.03;13.50;;;18.10;49.30;;;;;;5091661;28;20621;-82
2021/04/21 10:04:13;;;;;;;15.70;13.07;;;18.30;49.70;;;;;;5099476;28;20664;-83
2021/04/21 10:06:44;;;;;;;16.23;12.87;;;18.50;49.70;;;;;;5111301;28;20647;-83
2021/04/21 10:09:26;;;;;;;14.67;12.03;;;18.50;48.90;;;;;;5093771;28;20623;-83
2021/04/21 10:12:11;;;;;;;14.67;12.30;;;18.40;47.30;;;;;;5092970;28;20609;-83
2021/04/21 10:14:38;;;;;;;16.87;13.70;;;18.40;47.90;;;;;;5072445;28;20602;-84
2021/04/21 10:17:05;;;;;;;13.13;11.90;;;18.50;48.00;;;;;;5097175;28;20608;-82
2021/04/21 10:19:33;;;;;;;12.70;11.20;;;18.60;47.80;;;;;;5093822;28;20612;-82
2021/04/21 10:21:59;;;;;;;12.77;11.37;;;18.70;48.00;;;;;;5102992;28;20704;-83
2021/04/21 10:24:27;;;;;;;13.27;11.83;;;18.80;48.50;;;;;;5090643;28;20677;-83
2021/04/21 10:26:54;;;;;;;11.27;10.00;;;19.10;47.30;;;;;;5070009;28;20659;-83
2021/04/21 10:29:21;;;;;;;15.40;12.77;;;19.20;46.50;;;;;;5079559;28;20628;-82
2021/04/21 10:31:48;;;;;;;18.10;12.60;;;19.60;46.20;;;;;;5091647;28;20616;-83
2021/04/21 10:34:15;;;;;;;12.87;10.70;;;19.40;44.90;;;;;;5105493;28;20681;-83
2021/04/21 10:36:44;;;;;;;11.73;10.53;;;19.20;44.80;;;;;;5111674;28;20673;-83
2021/04/21 10:39:11;;;;;;;11.23;10.03;;;19.60;44.40;;;;;;5100070;28;20623;-83
2021/04/21 10:41:43;;;;;;;10.23;9.23;;;19.50;45.50;;;;;;5112901;28;20618;-83
2021/04/21 10:44:12;;;;;;;9.50;8.33;;;19.90;44.30;;;;;;5109728;28;20733;-83
2021/04/21 10:47:02;;;;;;;10.97;8.43;;;20.10;42.80;;;;;;5111412;28;20764;-83
2021/04/21 10:49:50;;;;;;;9.73;8.60;;;20.30;41.90;;;;;;5092158;28;20615;-84
2021/04/21 10:52:20;;;;;;;10.30;9.30;;;20.40;41.20;;;;;;5093155;28;22937;-84
2021/04/21 10:54:53;;;;;;;13.40;10.00;;;20.50;41.00;;;;;;5092866;28;20624;-83
2021/04/21 10:57:27;;;;;;;12.13;10.90;;;20.70;42.60;;;;;;5092045;28;20627;-83
2021/04/21 11:00:14;;;;;;;11.67;10.57;;;20.20;41.20;;;;;;5095834;28;20624;-83
2021/04/21 11:02:51;;;;;;;11.60;10.50;;;19.60;41.90;;;;;;5095380;28;20637;-83
2021/04/21 11:05:20;;;;;;;11.67;10.43;;;19.40;43.50;;;;;;5109981;28;20604;-84
2021/04/21 11:07:58;;;;;;;13.60;10.50;;;19.90;42.80;;;;;;5109239;28;20982;-83
2021/04/21 11:10:37;;;;;;;11.40;10.20;;;20.20;42.00;;;;;;5109285;28;20713;-83
2021/04/21 11:13:06;;;;;;;9.57;8.57;;;20.50;42.60;;;;;;5109862;28;20631;-84
2021/04/21 11:15:35;;;;;;;11.53;10.33;;;20.90;41.20;;;;;;5109558;28;20652;-84
2021/04/21 11:18:36;;;;;;;11.00;9.67;;;21.20;40.70;;;;;;5108968;28;20611;-83
2021/04/21 11:21:04;;;;;;;13.53;9.90;;;20.70;39.40;;;;;;5109804;28;20619;-83
2021/04/21 11:23:56;;;;;;;9.07;8.27;;;21.20;39.50;;;;;;5102452;28;20685;-84
2021/04/21 11:26:40;;;;;;;10.47;9.50;;;21.20;40.30;;;;;;5089636;28;20668;-84
2021/04/21 11:29:11;;;;;;;9.93;9.03;;;22.10;40.80;;;;;;5090079;28;21034;-84
2021/04/21 11:32:13;;;;;;;9.57;8.60;;;22.60;39.50;;;;;;5090909;28;21398;-83
2021/04/21 11:34:41;;;;;;;8.50;7.70;;;22.60;38.00;;;;;;5090198;28;20597;-83
2021/04/21 11:37:12;;;;;;;10.57;9.47;;;23.40;38.20;;;;;;5090154;28;20704;-84
2021/04/21 11:40:02;;;;;;;11.17;10.17;;;23.60;37.90;;;;;;5090230;28;20618;-84
2021/04/21 11:42:46;;;;;;;12.13;10.90;;;22.80;38.10;;;;;;5090280;28;21057;-83
2021/04/21 11:45:25;;;;;;;11.00;9.97;;;20.40;37.70;;;;;;5088791;28;20639;-83
2021/04/21 11:47:54;;;;;;;10.93;9.87;;;19.50;39.70;;;;;;5091183;28;20621;-83
2021/04/21 11:50:32;;;;;;;10.50;9.40;;;19.00;40.50;;;;;;5105035;28;20611;-83
2021/04/21 11:53:02;;;;;;;13.03;9.93;;;18.70;40.20;;;;;;5110203;28;20629;-83
2021/04/21 11:55:36;;;;;;;11.27;9.67;;;18.30;41.00;;;;;;5111022;28;20976;-83
2021/04/21 11:58:09;;;;;;;10.47;9.40;;;18.70;42.50;;;;;;5098049;28;20648;-83
2021/04/21 12:00:38;;;;;;;11.50;10.07;;;18.80;40.90;;;;;;5103368;28;20638;-83
2021/04/21 12:03:12;;;;;;;9.90;8.90;;;19.80;42.90;;;;;;5098503;28;20627;-84
2021/04/21 12:05:39;;;;;;;9.93;8.93;;;22.10;41.80;;;;;;5111855;28;20692;-85
2021/04/21 12:08:07;;;;;;;11.53;8.97;;;26.00;35.90;;;;;;5101304;28;20626;-83
2021/04/21 12:10:36;;;;;;;9.80;8.63;;;27.30;31.60;;;;;;5104043;28;20621;-84
2021/04/21 12:13:17;;;;;;;8.90;8.13;;;26.60;32.50;;;;;;5098014;28;20631;-84
2021/04/21 12:15:47;;;;;;;8.30;7.60;;;25.20;33.40;;;;;;5095378;28;21058;-83
2021/04/21 12:18:38;;;;;;;10.20;9.27;;;24.00;34.30;;;;;;5106309;28;20621;-83
2021/04/21 12:21:21;;;;;;;9.77;8.57;;;22.20;35.50;;;;;;5107163;28;20630;-83
2021/04/21 12:23:49;;;;;;;11.00;9.90;;;21.70;36.30;;;;;;5101740;28;21190;-83
2021/04/21 12:26:18;;;;;;;9.73;8.87;;;21.20;37.20;;;;;;5094937;28;21014;-83
2021/04/21 12:28:49;;;;;;;9.50;8.40;;;21.10;37.40;;;;;;5092639;28;21018;-83
2021/04/21 12:31:17;;;;;;;11.70;8.00;;;21.00;37.70;;;;;;5094009;28;21212;-83
2021/04/21 12:33:44;;;;;;;9.63;8.73;;;20.70;38.50;;;;;;5092709;28;21203;-82
2021/04/21 12:36:11;;;;;;;8.93;8.13;;;20.20;37.10;;;;;;5093286;28;20621;-83
2021/04/21 12:38:38;;;;;;;10.43;9.33;;;19.40;37.80;;;;;;5093025;28;21011;-83
2021/04/21 12:41:06;;;;;;;13.27;10.43;;;19.60;38.70;;;;;;5085489;28;20607;-84
2021/04/21 12:43:35;;;;;;;11.10;8.87;;;19.50;39.60;;;;;;5093940;28;20624;-83
2021/04/21 12:46:12;;;;;;;11.17;9.33;;;20.10;37.70;;;;;;5094173;28;20994;-83
2021/04/21 12:48:47;;;;;;;9.83;8.93;;;20.70;38.00;;;;;;5105260;28;20871;-82
2021/04/21 12:51:29;;;;;;;8.77;7.80;;;20.40;36.00;;;;;;5113598;28;20654;-82
2021/04/21 12:53:57;;;;;;;8.80;7.90;;;19.90;37.10;;;;;;5097514;28;20616;-82
2021/04/21 12:56:35;;;;;;;9.60;8.60;;;19.80;35.00;;;;;;5094694;28;20686;-82
2021/04/21 12:59:13;;;;;;;9.20;8.30;;;21.20;34.10;;;;;;5093730;28;20612;-82
2021/04/21 13:01:39;;;;;;;8.30;7.50;;;22.90;35.00;;;;;;5093429;28;20618;-83
2021/04/21 13:04:11;;;;;;;9.50;8.60;;;23.40;34.20;;;;;;5110412;28;20628;-83